createdAt,value
2023-12-20T00:02:24.772Z,100641.44
2023-12-20T00:04:51.955Z,100634.00
2023-12-20T00:07:19.150Z,100634.03
2023-12-20T00:09:46.201Z,100634.38
2023-12-20T00:12:15.762Z,100633.66
2023-12-20T00:14:42.809Z,100630.78
2023-12-20T00:17:09.824Z,100627.72
2023-12-20T00:19:36.851Z,100628.31
2023-12-20T00:22:04.145Z,100638.94
2023-12-20T00:24:31.152Z,100629.66
2023-12-20T00:26:58.238Z,100634.16
2023-12-20T00:29:27.832Z,100643.91
2023-12-20T00:31:54.855Z,100631.66
2023-12-20T00:34:21.904Z,100636.00
2023-12-20T00:36:48.958Z,100629.94
2023-12-20T00:39:15.991Z,100634.44
2023-12-20T00:41:42.963Z,100639.28
2023-12-20T00:44:09.984Z,100648.28
2023-12-20T00:46:39.537Z,100650.72
2023-12-20T00:49:06.561Z,100649.75
2023-12-20T00:51:33.595Z,100651.28
2023-12-20T00:54:00.565Z,100646.56
2023-12-20T00:56:27.538Z,100642.94
2023-12-20T00:58:54.543Z,100651.25
2023-12-20T01:01:22.523Z,100649.97
2023-12-20T01:03:52.195Z,100658.75
2023-12-20T01:06:19.363Z,100651.16
2023-12-20T01:08:46.603Z,100651.75
2023-12-20T01:11:13.574Z,100647.63
2023-12-20T01:13:40.563Z,100646.41
2023-12-20T01:16:07.729Z,100639.06
2023-12-20T01:18:34.721Z,100640.66
2023-12-20T01:21:05.908Z,100639.72
2023-12-20T01:23:33.407Z,100634.84
2023-12-20T01:26:00.789Z,100631.69
2023-12-20T01:28:28.026Z,100625.34
2023-12-20T01:30:55.295Z,100626.63
2023-12-20T01:33:22.319Z,100626.34
2023-12-20T01:35:49.371Z,100618.44
2023-12-20T01:38:18.942Z,100612.25
2023-12-20T01:40:45.997Z,100623.41
2023-12-20T01:43:13.068Z,100623.41
2023-12-20T01:45:40.143Z,100624.13
2023-12-20T01:48:09.678Z,100620.44
2023-12-20T01:50:38.010Z,100625.56
2023-12-20T01:53:06.686Z,100618.78
2023-12-20T01:55:40.073Z,100607.59
2023-12-20T01:58:08.103Z,100613.66
2023-12-20T02:00:36.280Z,100613.41
2023-12-20T02:03:04.183Z,100617.31
2023-12-20T02:05:32.089Z,100614.53
2023-12-20T02:07:59.785Z,100622.16
2023-12-20T02:10:30.434Z,100622.16
2023-12-20T02:13:00.158Z,100621.28
2023-12-20T02:15:27.575Z,100618.50
2023-12-20T02:17:55.616Z,100625.31
2023-12-20T02:20:22.724Z,100616.28
2023-12-20T02:22:52.351Z,100614.34
2023-12-20T02:25:19.371Z,100620.78
2023-12-20T02:27:46.705Z,100616.78
2023-12-20T02:30:14.081Z,100616.78
2023-12-20T02:32:41.279Z,100621.66
2023-12-20T02:35:08.568Z,100616.28
2023-12-20T02:37:35.578Z,100620.78
2023-12-20T02:40:06.191Z,100619.94
2023-12-20T02:42:33.237Z,100628.69
2023-12-20T02:45:00.334Z,100630.66
2023-12-20T02:47:27.360Z,100633.81
2023-12-20T02:49:55.047Z,100639.38
2023-12-20T02:52:22.770Z,100640.28
2023-12-20T02:54:49.871Z,100632.13
2023-12-20T02:57:19.413Z,100650.09
2023-12-20T02:59:46.474Z,100647.34
2023-12-20T03:02:13.632Z,100652.56
2023-12-20T03:04:40.872Z,100655.25
2023-12-20T03:07:07.969Z,100650.09
2023-12-20T03:09:47.736Z,100652.31
2023-12-20T03:12:24.468Z,100642.56
2023-12-20T03:14:51.456Z,100632.97
2023-12-20T03:17:18.489Z,100641.38
2023-12-20T03:19:45.472Z,100642.34
2023-12-20T03:22:12.511Z,100641.97
2023-12-20T03:24:39.536Z,100641.38
2023-12-20T03:27:06.566Z,100632.84
2023-12-20T03:29:36.166Z,100642.59
2023-12-20T03:32:03.375Z,100641.13
2023-12-20T03:34:30.465Z,100641.22
2023-12-20T03:36:57.559Z,100654.75
2023-12-20T03:39:24.583Z,100650.97
2023-12-20T03:41:51.508Z,100640.41
2023-12-20T03:44:18.511Z,100631.84
2023-12-20T03:46:48.154Z,100628.34
2023-12-20T03:49:15.127Z,100625.56
2023-12-20T03:51:42.136Z,100630.41
2023-12-20T03:54:09.148Z,100637.72
2023-12-20T03:56:36.269Z,100649.16
2023-12-20T03:59:03.292Z,100651.09
2023-12-20T04:01:30.345Z,100643.81
2023-12-20T04:04:00.040Z,100647.28
2023-12-20T04:06:27.189Z,100644.47
2023-12-20T04:08:54.336Z,100652.50
2023-12-20T04:11:21.301Z,100663.91
2023-12-20T04:13:48.268Z,100667.56
2023-12-20T04:16:15.373Z,100669.56
2023-12-20T04:18:42.487Z,100660.25
2023-12-20T04:21:12.151Z,100665.50
2023-12-20T04:23:39.118Z,100659.69
2023-12-20T04:26:06.106Z,100655.03
2023-12-20T04:28:33.171Z,100653.47
2023-12-20T04:31:00.402Z,100661.25
2023-12-20T04:33:27.487Z,100663.78
2023-12-20T04:35:54.652Z,100663.34
2023-12-20T04:38:24.226Z,100674.50
2023-12-20T04:40:51.199Z,100683.94
2023-12-20T04:43:18.417Z,100684.66
2023-12-20T04:45:45.519Z,100673.94
2023-12-20T04:48:13.205Z,100681.97
2023-12-20T04:50:40.369Z,100679.88
2023-12-20T04:53:07.365Z,100677.91
2023-12-20T04:55:37.004Z,100689.47
2023-12-20T04:58:04.464Z,100703.00
2023-12-20T05:00:31.602Z,100696.19
2023-12-20T05:02:58.582Z,100696.78
2023-12-20T05:05:25.692Z,100703.84
2023-12-20T05:07:52.809Z,100704.56
2023-12-20T05:10:19.941Z,100708.47
2023-12-20T05:12:49.565Z,100710.31
2023-12-20T05:15:16.552Z,100710.91
2023-12-20T05:17:43.918Z,100702.16
2023-12-20T05:20:11.317Z,100691.75
2023-12-20T05:22:38.419Z,100712.34
2023-12-20T05:25:06.483Z,100717.97
2023-12-20T05:27:33.530Z,100705.81
2023-12-20T05:30:03.412Z,100717.97
2023-12-20T05:32:30.462Z,100715.13
2023-12-20T05:34:57.621Z,100712.63
2023-12-20T05:37:24.710Z,100721.63
2023-12-20T05:39:51.759Z,100723.91
2023-12-20T05:42:18.718Z,100715.75
2023-12-20T05:44:45.865Z,100721.53
2023-12-20T05:47:15.586Z,100721.09
2023-12-20T05:49:43.427Z,100733.03
2023-12-20T05:52:10.525Z,100730.38
2023-12-20T05:54:37.510Z,100729.88
2023-12-20T05:57:05.349Z,100741.56
2023-12-20T05:59:32.377Z,100747.78
2023-12-20T06:01:59.380Z,100748.47
2023-12-20T06:04:29.044Z,100751.03
2023-12-20T06:06:56.361Z,100753.25
2023-12-20T06:09:23.516Z,100755.66
2023-12-20T06:11:50.785Z,100776.00
2023-12-20T06:14:17.801Z,100775.88
2023-12-20T06:16:46.207Z,100779.53
2023-12-20T06:19:13.508Z,100776.97
2023-12-20T06:21:45.139Z,100788.16
2023-12-20T06:24:12.476Z,100792.28
2023-12-20T06:26:39.513Z,100797.50
2023-12-20T06:29:06.586Z,100808.13
2023-12-20T06:31:33.705Z,100811.16
2023-12-20T06:34:00.811Z,100808.75
2023-12-20T06:36:29.188Z,100808.03
2023-12-20T06:38:58.722Z,100812.00
2023-12-20T06:41:25.756Z,100813.59
2023-12-20T06:43:52.849Z,100815.09
2023-12-20T06:46:20.071Z,100808.44
2023-12-20T06:48:47.455Z,100817.28
2023-12-20T06:51:16.575Z,100825.22
2023-12-20T06:53:43.718Z,100825.81
2023-12-20T06:56:16.022Z,100825.59
2023-12-20T06:58:45.048Z,100832.69
2023-12-20T07:01:12.939Z,100838.34
2023-12-20T07:03:41.410Z,100842.56
2023-12-20T07:06:08.901Z,100841.28
2023-12-20T07:08:36.296Z,100846.72
2023-12-20T07:11:03.470Z,100853.91
2023-12-20T07:13:34.897Z,100857.78
2023-12-20T07:16:01.930Z,100848.78
2023-12-20T07:18:28.990Z,100848.81
2023-12-20T07:20:56.002Z,100852.94
2023-12-20T07:23:23.056Z,100851.66
2023-12-20T07:25:50.088Z,100859.97
2023-12-20T07:28:17.170Z,100866.53
2023-12-20T07:30:46.993Z,100866.66
2023-12-20T07:33:14.224Z,100866.03
2023-12-20T07:35:41.498Z,100875.06
2023-12-20T07:38:08.708Z,100874.72
2023-12-20T07:40:35.708Z,100868.03
2023-12-20T07:43:02.794Z,100871.41
2023-12-20T07:45:29.959Z,100875.69
2023-12-20T07:47:59.706Z,100873.63
2023-12-20T07:50:26.948Z,100875.91
2023-12-20T07:52:54.187Z,100878.25
2023-12-20T07:55:21.254Z,100889.72
2023-12-20T07:57:48.678Z,100894.22
2023-12-20T08:00:16.898Z,100893.03
2023-12-20T08:02:44.038Z,100891.66
2023-12-20T08:05:14.161Z,100901.66
2023-12-20T08:07:41.778Z,100900.69
2023-12-20T08:10:09.495Z,100892.19
2023-12-20T08:12:36.678Z,100899.47
2023-12-20T08:15:04.328Z,100900.72
2023-12-20T08:17:31.425Z,100906.91
2023-12-20T08:19:58.682Z,100909.94
2023-12-20T08:22:28.499Z,100902.25
2023-12-20T08:24:55.602Z,100904.09
2023-12-20T08:27:22.765Z,100911.31
2023-12-20T08:29:49.850Z,100909.31
2023-12-20T08:32:16.892Z,100910.19
2023-12-20T08:34:44.046Z,100919.19
2023-12-20T08:37:11.215Z,100919.56
2023-12-20T08:39:43.393Z,100928.81
2023-12-20T08:42:12.081Z,100933.56
2023-12-20T08:44:39.130Z,100935.50
2023-12-20T08:47:06.676Z,100923.34
2023-12-20T08:49:33.802Z,100934.53
2023-12-20T08:52:00.922Z,100931.34
2023-12-20T08:54:27.957Z,100926.75
2023-12-20T08:56:57.632Z,100924.69
2023-12-20T08:59:24.796Z,100926.00
2023-12-20T09:01:52.052Z,100926.59
2023-12-20T09:04:19.132Z,100920.38
2023-12-20T09:06:46.302Z,100925.09
2023-12-20T09:09:13.477Z,100921.34
2023-12-20T09:11:40.632Z,100929.38
2023-12-20T09:14:10.261Z,100920.28
2023-12-20T09:16:37.287Z,100929.00
2023-12-20T09:19:04.455Z,100913.13
2023-12-20T09:21:31.502Z,100915.94
2023-12-20T09:23:58.631Z,100919.47
2023-12-20T09:26:25.728Z,100911.69
2023-12-20T09:28:52.824Z,100916.84
2023-12-20T09:31:22.635Z,100905.16
2023-12-20T09:33:49.808Z,100904.41
2023-12-20T09:36:17.039Z,100909.34
2023-12-20T09:38:45.771Z,100910.59
2023-12-20T09:41:14.511Z,100915.34
2023-12-20T09:43:42.914Z,100909.81
2023-12-20T09:46:17.288Z,100922.13
2023-12-20T09:48:47.857Z,100932.19
2023-12-20T09:51:16.812Z,100929.00
2023-12-20T09:53:45.383Z,100926.28
2023-12-20T09:56:14.512Z,100927.16
2023-12-20T09:58:41.757Z,100930.56
2023-12-20T10:01:09.621Z,100919.31
2023-12-20T10:03:42.180Z,100917.19
2023-12-20T10:06:12.244Z,100940.66
2023-12-20T10:08:39.612Z,100924.72
2023-12-20T10:11:07.063Z,100922.75
2023-12-20T10:13:34.339Z,100919.63
2023-12-20T10:16:01.587Z,100915.69
2023-12-20T10:18:38.041Z,100920.81
2023-12-20T10:21:07.302Z,100926.53
2023-12-20T10:23:38.035Z,100910.31
2023-12-20T10:26:05.421Z,100916.66
2023-12-20T10:28:35.749Z,100907.66
2023-12-20T10:31:03.226Z,100907.41
2023-12-20T10:33:32.419Z,100901.06
2023-12-20T10:35:59.789Z,100902.28
2023-12-20T10:38:26.935Z,100904.63
2023-12-20T10:40:59.079Z,100898.53
2023-12-20T10:43:29.261Z,100904.41
2023-12-20T10:45:56.457Z,100902.69
2023-12-20T10:48:25.142Z,100899.75
2023-12-20T10:50:52.697Z,100891.69
2023-12-20T10:53:21.494Z,100890.72
2023-12-20T10:55:53.748Z,100879.44
2023-12-20T10:58:25.539Z,100865.66
2023-12-20T11:01:01.258Z,100874.25
2023-12-20T11:03:33.046Z,100878.22
2023-12-20T11:06:09.772Z,100880.28
2023-12-20T11:08:46.306Z,100869.09
2023-12-20T11:11:25.158Z,100865.06
2023-12-20T11:14:04.829Z,100861.34
2023-12-20T11:16:41.399Z,100862.44
2023-12-20T11:19:15.757Z,100866.81
2023-12-20T11:21:42.967Z,100871.50
2023-12-20T11:24:11.098Z,100859.84
2023-12-20T11:26:38.164Z,100861.34
2023-12-20T11:29:35.477Z,100864.56
2023-12-20T11:32:03.437Z,100867.00
2023-12-20T11:34:33.472Z,100866.56
2023-12-20T11:37:03.329Z,100879.84
2023-12-20T11:39:32.665Z,100858.41
2023-12-20T11:42:05.834Z,100854.34
2023-12-20T11:44:35.652Z,100867.44
2023-12-20T11:47:02.812Z,100852.38
2023-12-20T11:49:29.893Z,100850.47
2023-12-20T11:51:56.955Z,100858.28
2023-12-20T11:54:24.020Z,100852.50
2023-12-20T11:56:51.076Z,100858.66
2023-12-20T11:59:23.340Z,100871.28
2023-12-20T12:01:53.949Z,100866.03
2023-12-20T12:04:21.280Z,100859.28
2023-12-20T12:06:48.463Z,100859.47
2023-12-20T12:09:15.617Z,100852.19
2023-12-20T12:11:42.906Z,100843.72
2023-12-20T12:14:10.026Z,100838.63
2023-12-20T12:16:37.197Z,100835.22
2023-12-20T12:19:06.897Z,100833.34
2023-12-20T12:21:34.672Z,100839.44
2023-12-20T12:24:11.306Z,100846.81
2023-12-20T12:26:39.053Z,100840.91
2023-12-20T12:29:08.892Z,100837.03
2023-12-20T12:31:36.264Z,100834.75
2023-12-20T12:34:03.534Z,100831.75
2023-12-20T12:36:33.837Z,100837.00
2023-12-20T12:39:03.572Z,100833.16
2023-12-20T12:41:30.642Z,100830.03
2023-12-20T12:44:00.913Z,100832.84
2023-12-20T12:46:30.762Z,100829.44
2023-12-20T12:48:57.997Z,100836.63
2023-12-20T12:51:25.175Z,100830.66
2023-12-20T12:53:54.974Z,100829.00
2023-12-20T12:56:22.165Z,100830.66
2023-12-20T12:58:49.293Z,100836.63
2023-12-20T13:01:16.437Z,100826.75
2023-12-20T13:03:43.539Z,100840.16
2023-12-20T13:06:10.783Z,100829.44
2023-12-20T13:08:37.893Z,100834.06
2023-12-20T13:11:07.667Z,100820.09
2023-12-20T13:13:34.753Z,100822.63
2023-12-20T13:16:01.973Z,100815.84
2023-12-20T13:18:29.247Z,100829.97
2023-12-20T13:20:56.465Z,100820.66
2023-12-20T13:23:23.507Z,100830.28
2023-12-20T13:25:50.525Z,100844.63
2023-12-20T13:28:20.255Z,100823.03
2023-12-20T13:30:47.595Z,100822.84
2023-12-20T13:33:14.732Z,100830.03
2023-12-20T13:35:41.758Z,100831.31
2023-12-20T13:38:08.990Z,100811.00
2023-12-20T13:40:36.103Z,100804.25
2023-12-20T13:43:03.298Z,100800.41
2023-12-20T13:45:33.041Z,100793.78
2023-12-20T13:48:00.239Z,100792.66
2023-12-20T13:50:27.441Z,100792.41
2023-12-20T13:52:54.597Z,100786.88
2023-12-20T13:55:21.666Z,100784.06
2023-12-20T13:57:54.885Z,100790.78
2023-12-20T14:00:23.202Z,100786.41
2023-12-20T14:02:52.876Z,100781.94
2023-12-20T14:05:20.109Z,100773.16
2023-12-20T14:07:47.927Z,100774.41
2023-12-20T14:10:15.482Z,100779.72
2023-12-20T14:12:43.190Z,100787.91
2023-12-20T14:15:10.893Z,100785.94
2023-12-20T14:17:38.258Z,100777.16
2023-12-20T14:20:09.572Z,100777.84
2023-12-20T14:22:37.032Z,100770.75
2023-12-20T14:25:04.624Z,100766.78
2023-12-20T14:27:31.895Z,100770.22
2023-12-20T14:29:59.070Z,100762.13
2023-12-20T14:32:26.104Z,100767.72
2023-12-20T14:34:53.925Z,100770.59
2023-12-20T14:37:23.954Z,100774.00
2023-12-20T14:39:51.098Z,100771.31
2023-12-20T14:42:18.138Z,100778.19
2023-12-20T14:44:45.190Z,100781.03
2023-12-20T14:47:12.318Z,100779.91
2023-12-20T14:49:39.528Z,100787.66
2023-12-20T14:52:07.144Z,100792.03
2023-12-20T14:54:37.053Z,100772.53
2023-12-20T14:57:05.741Z,100773.53
2023-12-20T14:59:33.162Z,100776.19
2023-12-20T15:02:00.386Z,100770.28
2023-12-20T15:04:27.613Z,100765.22
2023-12-20T15:06:54.726Z,100767.72
2023-12-20T15:09:21.841Z,100763.16
2023-12-20T15:11:51.669Z,100767.41
2023-12-20T15:14:18.665Z,100755.84
2023-12-20T15:16:45.989Z,100755.03
2023-12-20T15:19:13.109Z,100762.31
2023-12-20T15:21:40.164Z,100762.78
2023-12-20T15:24:07.772Z,100760.66
2023-12-20T15:26:35.455Z,100759.75
2023-12-20T15:29:05.122Z,100766.50
2023-12-20T15:31:32.183Z,100760.78
2023-12-20T15:33:59.980Z,100757.53
2023-12-20T15:36:27.088Z,100747.06
2023-12-20T15:38:54.125Z,100743.16
2023-12-20T15:41:22.586Z,100734.91
2023-12-20T15:43:49.680Z,100740.28
2023-12-20T15:46:19.331Z,100738.03
2023-12-20T15:48:46.481Z,100739.56
2023-12-20T15:51:15.166Z,100738.28
2023-12-20T15:53:42.194Z,100736.28
2023-12-20T15:56:09.294Z,100735.84
2023-12-20T15:58:36.429Z,100741.38
2023-12-20T16:01:03.815Z,100751.25
2023-12-20T16:03:38.678Z,100737.44
2023-12-20T16:06:08.147Z,100744.91
2023-12-20T16:08:35.141Z,100747.72
2023-12-20T16:11:02.268Z,100747.59
2023-12-20T16:13:29.313Z,100737.72
2023-12-20T16:15:56.472Z,100734.31
2023-12-20T16:18:23.586Z,100731.06
2023-12-20T16:20:53.268Z,100737.41
2023-12-20T16:23:20.246Z,100743.56
2023-12-20T16:25:47.282Z,100743.81
2023-12-20T16:28:14.310Z,100738.19
2023-12-20T16:30:41.378Z,100731.56
2023-12-20T16:33:08.601Z,100733.38
2023-12-20T16:35:35.628Z,100725.59
2023-12-20T16:38:05.360Z,100737.03
2023-12-20T16:40:32.512Z,100722.66
2023-12-20T16:42:59.577Z,100733.06
2023-12-20T16:45:26.596Z,100735.59
2023-12-20T16:47:53.755Z,100735.59
2023-12-20T16:50:20.863Z,100752.03
2023-12-20T16:52:47.993Z,100733.94
2023-12-20T16:55:18.380Z,100735.59
2023-12-20T16:57:45.656Z,100725.78
2023-12-20T17:00:14.824Z,100730.56
2023-12-20T17:02:42.024Z,100729.13
2023-12-20T17:05:09.881Z,100736.25
2023-12-20T17:07:36.957Z,100729.31
2023-12-20T17:10:04.677Z,100722.06
2023-12-20T17:12:34.307Z,100718.41
2023-12-20T17:15:01.410Z,100723.22
2023-12-20T17:17:28.410Z,100723.38
2023-12-20T17:19:55.646Z,100717.00
2023-12-20T17:22:22.956Z,100718.28
2023-12-20T17:24:50.075Z,100716.31
2023-12-20T17:27:19.242Z,100722.84
2023-12-20T17:29:48.840Z,100715.78
2023-12-20T17:32:16.228Z,100720.94
2023-12-20T17:34:43.373Z,100713.47
2023-12-20T17:37:10.438Z,100716.03
2023-12-20T17:39:37.597Z,100696.09
2023-12-20T17:42:05.091Z,100706.88
2023-12-20T17:44:32.126Z,100711.66
2023-12-20T17:47:01.869Z,100715.84
2023-12-20T17:49:30.066Z,100711.22
2023-12-20T17:51:57.412Z,100713.66
2023-12-20T17:54:24.425Z,100714.06
2023-12-20T17:56:51.414Z,100709.44
2023-12-20T17:59:18.520Z,100725.66
2023-12-20T18:01:45.673Z,100712.56
2023-12-20T18:04:15.330Z,100725.25
2023-12-20T18:06:42.296Z,100731.94
2023-12-20T18:09:09.303Z,100719.03
2023-12-20T18:11:36.287Z,100701.28
2023-12-20T18:14:03.243Z,100709.16
2023-12-20T18:16:30.517Z,100703.78
2023-12-20T18:18:58.153Z,100699.16
2023-12-20T18:21:28.065Z,100694.03
2023-12-20T18:24:01.938Z,100689.81
2023-12-20T18:26:32.651Z,100689.22
2023-12-20T18:28:59.664Z,100703.66
2023-12-20T18:31:26.800Z,100699.88
2023-12-20T18:33:54.208Z,100701.66
2023-12-20T18:36:21.211Z,100695.06
2023-12-20T18:38:50.783Z,100701.78
2023-12-20T18:41:17.813Z,100704.63
2023-12-20T18:43:44.852Z,100699.50
2023-12-20T18:46:12.022Z,100702.06
2023-12-20T18:48:39.257Z,100688.06
2023-12-20T18:51:06.396Z,100696.69
2023-12-20T18:53:33.501Z,100691.59
2023-12-20T18:56:03.644Z,100699.75
2023-12-20T18:58:30.961Z,100691.91
2023-12-20T19:00:58.134Z,100684.00
2023-12-20T19:03:25.203Z,100683.69
2023-12-20T19:05:52.207Z,100683.44
2023-12-20T19:08:19.274Z,100673.38
2023-12-20T19:10:46.432Z,100675.44
2023-12-20T19:13:16.131Z,100670.94
2023-12-20T19:15:43.172Z,100671.25
2023-12-20T19:18:10.252Z,100681.16
2023-12-20T19:20:37.299Z,100666.38
2023-12-20T19:23:04.672Z,100664.22
2023-12-20T19:25:31.779Z,100644.16
2023-12-20T19:27:58.873Z,100638.66
2023-12-20T19:30:28.744Z,100635.97
2023-12-20T19:32:55.774Z,100629.63
2023-12-20T19:35:22.824Z,100635.78
2023-12-20T19:37:50.012Z,100642.66
2023-12-20T19:40:17.234Z,100637.06
2023-12-20T19:42:44.454Z,100649.19
2023-12-20T19:45:11.687Z,100640.72
2023-12-20T19:47:41.423Z,100646.38
2023-12-20T19:50:09.210Z,100648.94
2023-12-20T19:52:36.487Z,100645.53
2023-12-20T19:55:04.125Z,100634.56
2023-12-20T19:57:31.158Z,100630.31
2023-12-20T19:59:58.352Z,100631.69
2023-12-20T20:02:25.548Z,100625.38
2023-12-20T20:04:55.368Z,100628.88
2023-12-20T20:07:22.461Z,100625.19
2023-12-20T20:09:49.572Z,100654.56
2023-12-20T20:12:16.747Z,100636.66
2023-12-20T20:14:43.729Z,100626.91
2023-12-20T20:17:11.957Z,100627.63
2023-12-20T20:19:39.152Z,100619.03
2023-12-20T20:22:08.825Z,100624.28
2023-12-20T20:24:35.951Z,100612.28
2023-12-20T20:27:03.198Z,100612.16
2023-12-20T20:29:30.171Z,100604.91
2023-12-20T20:31:57.181Z,100596.31
2023-12-20T20:34:24.315Z,100599.84
2023-12-20T20:36:51.346Z,100596.44
2023-12-20T20:39:21.014Z,100597.31
2023-12-20T20:41:48.142Z,100609.72
2023-12-20T20:44:15.345Z,100615.06
2023-12-20T20:46:43.389Z,100600.53
2023-12-20T20:49:10.601Z,100591.31
2023-12-20T20:51:37.813Z,100609.78
2023-12-20T20:54:12.033Z,100596.56
2023-12-20T20:56:48.124Z,100593.41
2023-12-20T20:59:15.247Z,100588.66
2023-12-20T21:01:42.409Z,100579.88
2023-12-20T21:04:09.565Z,100578.66
2023-12-20T21:06:36.776Z,100575.56
2023-12-20T21:09:03.945Z,100567.38
2023-12-20T21:11:30.941Z,100578.22
2023-12-20T21:14:00.663Z,100569.59
2023-12-20T21:16:27.776Z,100556.25
2023-12-20T21:18:54.816Z,100552.72
2023-12-20T21:21:21.814Z,100534.94
2023-12-20T21:23:48.824Z,100533.13
2023-12-20T21:26:15.921Z,100520.31
2023-12-20T21:28:43.045Z,100519.47
2023-12-20T21:31:12.789Z,100516.06
2023-12-20T21:33:39.950Z,100525.66
2023-12-20T21:36:08.061Z,100505.63
2023-12-20T21:38:35.026Z,100495.72
2023-12-20T21:41:02.068Z,100498.56
2023-12-20T21:43:29.478Z,100492.06
2023-12-20T21:45:56.570Z,100492.91
2023-12-20T21:48:26.291Z,100491.22
2023-12-20T21:50:53.308Z,100482.88
2023-12-20T21:53:20.302Z,100499.41
2023-12-20T21:55:47.366Z,100485.31
2023-12-20T21:58:14.402Z,100477.44
2023-12-20T22:00:41.570Z,100477.81
2023-12-20T22:03:08.572Z,100455.53
2023-12-20T22:05:39.831Z,100461.63
2023-12-20T22:08:08.503Z,100470.34
2023-12-20T22:10:36.198Z,100462.16
2023-12-20T22:13:03.297Z,100456.81
2023-12-20T22:15:30.275Z,100450.47
2023-12-20T22:17:57.345Z,100453.72
2023-12-20T22:20:24.500Z,100453.72
2023-12-20T22:22:54.120Z,100451.19
2023-12-20T22:25:21.246Z,100455.16
2023-12-20T22:27:48.495Z,100457.69
2023-12-20T22:30:15.925Z,100449.06
2023-12-20T22:32:42.950Z,100440.91
2023-12-20T22:35:10.651Z,100432.59
2023-12-20T22:37:37.732Z,100429.47
2023-12-20T22:40:08.968Z,100441.44
2023-12-20T22:42:35.943Z,100429.63
2023-12-20T22:45:03.218Z,100428.06
2023-12-20T22:47:30.219Z,100436.25
2023-12-20T22:49:57.297Z,100412.00
2023-12-20T22:52:24.422Z,100412.56
2023-12-20T22:54:51.555Z,100404.94
2023-12-20T22:57:21.268Z,100416.50
2023-12-20T22:59:48.355Z,100409.47
2023-12-20T23:02:15.416Z,100393.94
2023-12-20T23:04:42.488Z,100391.97
2023-12-20T23:07:09.565Z,100393.50
2023-12-20T23:09:36.604Z,100381.81
2023-12-20T23:12:04.334Z,100387.88
2023-12-20T23:14:33.932Z,100394.50
2023-12-20T23:17:00.953Z,100411.16
2023-12-20T23:19:27.944Z,100385.34
2023-12-20T23:21:54.984Z,100377.03
2023-12-20T23:24:21.952Z,100368.66
2023-12-20T23:26:48.938Z,100368.97
2023-12-20T23:29:15.958Z,100345.13
2023-12-20T23:31:45.569Z,100386.19
2023-12-20T23:34:12.728Z,100384.63
2023-12-20T23:36:39.797Z,100375.03
2023-12-20T23:39:06.768Z,100378.84
2023-12-20T23:41:33.761Z,100362.31
2023-12-20T23:44:00.803Z,100341.72
2023-12-20T23:46:27.769Z,100350.78
2023-12-20T23:48:57.403Z,100347.66
2023-12-20T23:51:24.445Z,100349.63
2023-12-20T23:53:51.379Z,100337.25
2023-12-20T23:56:27.437Z,100335.53
2023-12-20T23:58:58.460Z,100326.34
